sensor_id;sensor_type;location;lat;lon;timestamp;temperature;humidity
69031;DHT22;56083;48.774;8.942;2023-02-22T00:00:50;2.30;99.90
69031;DHT22;56083;48.774;8.942;2023-02-22T00:03:25;2.30;99.90
69031;DHT22;56083;48.774;8.942;2023-02-22T00:05:56;2.30;99.90
69031;DHT22;56083;48.774;8.942;2023-02-22T00:08:29;2.30;99.90
69031;DHT22;56083;48.774;8.942;2023-02-22T00:10:59;2.30;99.90
69031;DHT22;56083;48.774;8.942;2023-02-22T00:13:26;2.30;99.90
69031;DHT22;56083;48.774;8.942;2023-02-22T00:15:54;2.20;99.90
69031;DHT22;56083;48.774;8.942;2023-02-22T00:18:20;2.20;99.90
69031;DHT22;56083;48.774;8.942;2023-02-22T00:20:46;2.20;99.90
69031;DHT22;56083;48.774;8.942;2023-02-22T00:23:17;2.20;99.90
69031;DHT22;56083;48.774;8.942;2023-02-22T00:25:44;2.20;99.90
69031;DHT22;56083;48.774;8.942;2023-02-22T00:28:11;2.20;99.90
69031;DHT22;56083;48.774;8.942;2023-02-22T00:30:37;2.20;99.90
69031;DHT22;56083;48.774;8.942;2023-02-22T00:33:03;2.20;99.90
69031;DHT22;56083;48.774;8.942;2023-02-22T00:35:30;2.20;99.90
69031;DHT22;56083;48.774;8.942;2023-02-22T00:38:00;2.30;99.90
69031;DHT22;56083;48.774;8.942;2023-02-22T00:40:29;2.30;99.90
69031;DHT22;56083;48.774;8.942;2023-02-22T00:42:59;2.30;99.90
69031;DHT22;56083;48.774;8.942;2023-02-22T00:45:26;2.30;99.90
69031;DHT22;56083;48.774;8.942;2023-02-22T00:47:53;2.30;99.90
69031;DHT22;56083;48.774;8.942;2023-02-22T00:50:20;2.20;99.90
69031;DHT22;56083;48.774;8.942;2023-02-22T00:52:46;2.20;99.90
69031;DHT22;56083;48.774;8.942;2023-02-22T00:55:17;2.20;99.90
69031;DHT22;56083;48.774;8.942;2023-02-22T00:57:43;2.20;99.90
69031;DHT22;56083;48.774;8.942;2023-02-22T01:00:18;2.10;99.90
69031;DHT22;56083;48.774;8.942;2023-02-22T01:02:44;2.00;99.90
69031;DHT22;56083;48.774;8.942;2023-02-22T01:05:11;2.00;99.90
69031;DHT22;56083;48.774;8.942;2023-02-22T01:07:38;1.90;99.90
69031;DHT22;56083;48.774;8.942;2023-02-22T01:10:06;1.90;99.90
69031;DHT22;56083;48.774;8.942;2023-02-22T01:12:33;1.90;99.90
69031;DHT22;56083;48.774;8.942;2023-02-22T01:14:59;1.90;99.90
69031;DHT22;56083;48.774;8.942;2023-02-22T01:17:26;1.90;99.90
69031;DHT22;56083;48.774;8.942;2023-02-22T01:19:52;1.90;99.90
69031;DHT22;56083;48.774;8.942;2023-02-22T01:22:19;1.90;99.90
69031;DHT22;56083;48.774;8.942;2023-02-22T01:24:49;2.00;99.90
69031;DHT22;56083;48.774;8.942;2023-02-22T01:27:16;2.00;99.90
69031;DHT22;56083;48.774;8.942;2023-02-22T01:29:42;1.90;99.90
69031;DHT22;56083;48.774;8.942;2023-02-22T01:32:08;1.90;99.90
69031;DHT22;56083;48.774;8.942;2023-02-22T01:34:36;2.00;99.90
69031;DHT22;56083;48.774;8.942;2023-02-22T01:37:02;1.90;99.90
69031;DHT22;56083;48.774;8.942;2023-02-22T01:39:28;1.90;99.90
69031;DHT22;56083;48.774;8.942;2023-02-22T01:41:54;1.90;99.90
69031;DHT22;56083;48.774;8.942;2023-02-22T01:44:27;1.90;99.90
69031;DHT22;56083;48.774;8.942;2023-02-22T01:46:58;1.90;99.90
69031;DHT22;56083;48.774;8.942;2023-02-22T01:49:27;1.90;99.90
69031;DHT22;56083;48.774;8.942;2023-02-22T01:51:56;1.90;99.90
69031;DHT22;56083;48.774;8.942;2023-02-22T01:54:48;1.90;99.90
69031;DHT22;56083;48.774;8.942;2023-02-22T01:57:21;1.90;99.90
69031;DHT22;56083;48.774;8.942;2023-02-22T01:59:50;1.90;99.90
69031;DHT22;56083;48.774;8.942;2023-02-22T02:02:18;1.90;99.90
69031;DHT22;56083;48.774;8.942;2023-02-22T02:04:46;2.00;99.90
69031;DHT22;56083;48.774;8.942;2023-02-22T02:07:14;2.10;99.90
69031;DHT22;56083;48.774;8.942;2023-02-22T02:12:15;2.10;99.90
69031;DHT22;56083;48.774;8.942;2023-02-22T02:14:42;2.20;99.90
69031;DHT22;56083;48.774;8.942;2023-02-22T02:17:10;2.20;99.90
69031;DHT22;56083;48.774;8.942;2023-02-22T02:33:17;2.50;99.90
69031;DHT22;56083;48.774;8.942;2023-02-22T02:35:53;2.50;99.90
69031;DHT22;56083;48.774;8.942;2023-02-22T02:38:31;2.60;99.90
69031;DHT22;56083;48.774;8.942;2023-02-22T02:43:49;2.60;99.90
69031;DHT22;56083;48.774;8.942;2023-02-22T02:48:57;2.60;99.90
69031;DHT22;56083;48.774;8.942;2023-02-22T02:51:28;2.60;99.90
69031;DHT22;56083;48.774;8.942;2023-02-22T02:53:55;2.70;99.90
69031;DHT22;56083;48.774;8.942;2023-02-22T02:56:21;2.70;99.90
69031;DHT22;56083;48.774;8.942;2023-02-22T02:58:52;2.70;99.90
69031;DHT22;56083;48.774;8.942;2023-02-22T03:04:04;2.70;99.90
69031;DHT22;56083;48.774;8.942;2023-02-22T03:09:58;2.80;99.90
69031;DHT22;56083;48.774;8.942;2023-02-22T03:12:52;2.90;99.90
69031;DHT22;56083;48.774;8.942;2023-02-22T03:15:50;2.90;99.90
69031;DHT22;56083;48.774;8.942;2023-02-22T03:18:49;2.90;99.90
69031;DHT22;56083;48.774;8.942;2023-02-22T03:21:33;2.90;99.90
69031;DHT22;56083;48.774;8.942;2023-02-22T03:24:05;2.90;99.90
69031;DHT22;56083;48.774;8.942;2023-02-22T03:26:39;2.80;99.90
69031;DHT22;56083;48.774;8.942;2023-02-22T03:29:07;2.80;99.90
69031;DHT22;56083;48.774;8.942;2023-02-22T03:31:41;2.70;99.90
69031;DHT22;56083;48.774;8.942;2023-02-22T03:34:25;2.60;99.90
69031;DHT22;56083;48.774;8.942;2023-02-22T03:37:14;2.50;99.90
69031;DHT22;56083;48.774;8.942;2023-02-22T03:39:43;2.40;99.90
69031;DHT22;56083;48.774;8.942;2023-02-22T03:42:14;2.30;99.90
69031;DHT22;56083;48.774;8.942;2023-02-22T03:44:42;2.30;99.90
69031;DHT22;56083;48.774;8.942;2023-02-22T03:47:11;2.20;99.90
69031;DHT22;56083;48.774;8.942;2023-02-22T03:49:50;2.20;99.90
69031;DHT22;56083;48.774;8.942;2023-02-22T03:52:17;2.10;99.90
69031;DHT22;56083;48.774;8.942;2023-02-22T03:54:43;2.10;99.90
69031;DHT22;56083;48.774;8.942;2023-02-22T03:57:47;2.10;99.90
69031;DHT22;56083;48.774;8.942;2023-02-22T04:00:08;2.10;99.90
69031;DHT22;56083;48.774;8.942;2023-02-22T04:02:34;2.10;99.90
69031;DHT22;56083;48.774;8.942;2023-02-22T04:05:00;2.10;99.90
69031;DHT22;56083;48.774;8.942;2023-02-22T04:07:25;2.00;99.90
69031;DHT22;56083;48.774;8.942;2023-02-22T04:09:51;2.00;99.90
69031;DHT22;56083;48.774;8.942;2023-02-22T04:12:17;2.00;99.90
69031;DHT22;56083;48.774;8.942;2023-02-22T04:14:42;2.00;99.90
69031;DHT22;56083;48.774;8.942;2023-02-22T04:17:08;2.00;99.90
69031;DHT22;56083;48.774;8.942;2023-02-22T04:19:34;2.10;99.90
69031;DHT22;56083;48.774;8.942;2023-02-22T04:22:03;2.10;99.90
69031;DHT22;56083;48.774;8.942;2023-02-22T04:24:28;2.00;99.90
69031;DHT22;56083;48.774;8.942;2023-02-22T04:26:54;2.00;99.90
69031;DHT22;56083;48.774;8.942;2023-02-22T04:29:20;2.00;99.90
69031;DHT22;56083;48.774;8.942;2023-02-22T04:31:46;2.00;99.90
69031;DHT22;56083;48.774;8.942;2023-02-22T04:34:11;2.00;99.90
69031;DHT22;56083;48.774;8.942;2023-02-22T04:36:37;2.00;99.90
69031;DHT22;56083;48.774;8.942;2023-02-22T04:39:03;2.00;99.90
69031;DHT22;56083;48.774;8.942;2023-02-22T04:41:30;2.10;99.90
69031;DHT22;56083;48.774;8.942;2023-02-22T04:43:56;2.20;99.90
69031;DHT22;56083;48.774;8.942;2023-02-22T04:46:22;2.20;99.90
69031;DHT22;56083;48.774;8.942;2023-02-22T04:48:48;2.20;99.90
69031;DHT22;56083;48.774;8.942;2023-02-22T04:51:14;2.20;99.90
69031;DHT22;56083;48.774;8.942;2023-02-22T04:53:40;2.30;99.90
69031;DHT22;56083;48.774;8.942;2023-02-22T04:56:05;2.30;99.90
69031;DHT22;56083;48.774;8.942;2023-02-22T04:58:31;2.30;99.90
69031;DHT22;56083;48.774;8.942;2023-02-22T05:00:59;2.30;99.90
69031;DHT22;56083;48.774;8.942;2023-02-22T05:03:25;2.20;99.90
69031;DHT22;56083;48.774;8.942;2023-02-22T05:05:51;2.20;99.90
69031;DHT22;56083;48.774;8.942;2023-02-22T05:08:17;2.30;99.90
69031;DHT22;56083;48.774;8.942;2023-02-22T05:10:43;2.40;99.90
69031;DHT22;56083;48.774;8.942;2023-02-22T05:13:08;2.40;99.90
69031;DHT22;56083;48.774;8.942;2023-02-22T05:15:34;2.50;99.90
69031;DHT22;56083;48.774;8.942;2023-02-22T05:17:59;2.50;99.90
69031;DHT22;56083;48.774;8.942;2023-02-22T05:20:31;2.50;99.90
69031;DHT22;56083;48.774;8.942;2023-02-22T05:22:59;2.60;99.90
69031;DHT22;56083;48.774;8.942;2023-02-22T05:25:25;2.60;99.90
69031;DHT22;56083;48.774;8.942;2023-02-22T05:30:18;2.60;99.90
69031;DHT22;56083;48.774;8.942;2023-02-22T05:32:44;2.60;99.90
69031;DHT22;56083;48.774;8.942;2023-02-22T05:35:10;2.70;99.90
69031;DHT22;56083;48.774;8.942;2023-02-22T05:37:36;2.70;99.90
69031;DHT22;56083;48.774;8.942;2023-02-22T05:40:02;2.70;99.90
69031;DHT22;56083;48.774;8.942;2023-02-22T05:42:27;2.80;99.90
69031;DHT22;56083;48.774;8.942;2023-02-22T05:44:53;2.80;99.90
69031;DHT22;56083;48.774;8.942;2023-02-22T05:47:18;2.80;99.90
69031;DHT22;56083;48.774;8.942;2023-02-22T05:49:44;2.80;99.90
69031;DHT22;56083;48.774;8.942;2023-02-22T05:52:10;2.80;99.90
69031;DHT22;56083;48.774;8.942;2023-02-22T05:54:35;2.80;99.90
69031;DHT22;56083;48.774;8.942;2023-02-22T05:57:01;2.70;99.90
69031;DHT22;56083;48.774;8.942;2023-02-22T05:59:26;2.70;99.90
69031;DHT22;56083;48.774;8.942;2023-02-22T06:01:53;2.70;99.90
69031;DHT22;56083;48.774;8.942;2023-02-22T06:04:19;2.70;99.90
69031;DHT22;56083;48.774;8.942;2023-02-22T06:06:44;2.70;99.90
69031;DHT22;56083;48.774;8.942;2023-02-22T06:09:10;2.70;99.90
69031;DHT22;56083;48.774;8.942;2023-02-22T06:11:36;2.70;99.90
69031;DHT22;56083;48.774;8.942;2023-02-22T06:14:01;2.70;99.90
69031;DHT22;56083;48.774;8.942;2023-02-22T06:16:27;2.80;99.90
69031;DHT22;56083;48.774;8.942;2023-02-22T06:18:53;2.80;99.90
69031;DHT22;56083;48.774;8.942;2023-02-22T06:21:18;2.80;99.90
69031;DHT22;56083;48.774;8.942;2023-02-22T06:23:44;2.80;99.90
69031;DHT22;56083;48.774;8.942;2023-02-22T06:26:09;2.90;99.90
69031;DHT22;56083;48.774;8.942;2023-02-22T06:28:35;2.90;99.90
69031;DHT22;56083;48.774;8.942;2023-02-22T06:31:01;2.90;99.90
69031;DHT22;56083;48.774;8.942;2023-02-22T06:33:26;2.90;99.90
69031;DHT22;56083;48.774;8.942;2023-02-22T06:35:52;2.90;99.90
69031;DHT22;56083;48.774;8.942;2023-02-22T06:38:24;3.00;99.90
69031;DHT22;56083;48.774;8.942;2023-02-22T06:40:50;3.10;99.90
69031;DHT22;56083;48.774;8.942;2023-02-22T06:43:16;3.20;99.90
69031;DHT22;56083;48.774;8.942;2023-02-22T06:45:42;3.40;99.90
69031;DHT22;56083;48.774;8.942;2023-02-22T06:48:08;3.50;99.90
69031;DHT22;56083;48.774;8.942;2023-02-22T06:50:33;3.60;99.90
69031;DHT22;56083;48.774;8.942;2023-02-22T06:52:59;3.70;99.90
69031;DHT22;56083;48.774;8.942;2023-02-22T06:55:29;3.80;99.90
69031;DHT22;56083;48.774;8.942;2023-02-22T06:57:56;3.90;99.90
69031;DHT22;56083;48.774;8.942;2023-02-22T07:00:23;4.10;99.90
69031;DHT22;56083;48.774;8.942;2023-02-22T07:02:50;4.30;99.90
69031;DHT22;56083;48.774;8.942;2023-02-22T07:05:18;4.60;99.90
69031;DHT22;56083;48.774;8.942;2023-02-22T07:07:45;4.80;99.90
69031;DHT22;56083;48.774;8.942;2023-02-22T07:10:37;4.90;99.90
69031;DHT22;56083;48.774;8.942;2023-02-22T07:13:04;5.10;99.90
69031;DHT22;56083;48.774;8.942;2023-02-22T07:15:32;5.00;99.90
69031;DHT22;56083;48.774;8.942;2023-02-22T07:17:58;5.00;99.90
69031;DHT22;56083;48.774;8.942;2023-02-22T07:20:26;5.00;99.90
69031;DHT22;56083;48.774;8.942;2023-02-22T07:22:52;5.00;99.90
69031;DHT22;56083;48.774;8.942;2023-02-22T07:25:18;5.00;99.90
69031;DHT22;56083;48.774;8.942;2023-02-22T07:27:44;4.90;99.90
69031;DHT22;56083;48.774;8.942;2023-02-22T07:30:22;5.00;99.90
69031;DHT22;56083;48.774;8.942;2023-02-22T07:32:53;5.20;99.90
69031;DHT22;56083;48.774;8.942;2023-02-22T07:35:25;5.60;99.90
69031;DHT22;56083;48.774;8.942;2023-02-22T07:37:51;5.90;99.90
69031;DHT22;56083;48.774;8.942;2023-02-22T07:40:17;6.40;99.90
69031;DHT22;56083;48.774;8.942;2023-02-22T07:45:30;7.10;99.90
69031;DHT22;56083;48.774;8.942;2023-02-22T07:47:57;7.50;99.90
69031;DHT22;56083;48.774;8.942;2023-02-22T07:50:24;7.90;99.90
69031;DHT22;56083;48.774;8.942;2023-02-22T07:52:54;8.50;99.90
69031;DHT22;56083;48.774;8.942;2023-02-22T07:55:22;9.10;99.90
69031;DHT22;56083;48.774;8.942;2023-02-22T07:57:50;9.60;99.90
69031;DHT22;56083;48.774;8.942;2023-02-22T08:00:24;9.90;99.90
69031;DHT22;56083;48.774;8.942;2023-02-22T08:02:50;10.10;99.90
69031;DHT22;56083;48.774;8.942;2023-02-22T08:05:17;10.40;99.90
69031;DHT22;56083;48.774;8.942;2023-02-22T08:07:43;10.70;99.90
69031;DHT22;56083;48.774;8.942;2023-02-22T08:10:09;11.10;99.90
69031;DHT22;56083;48.774;8.942;2023-02-22T08:12:36;11.50;99.90
69031;DHT22;56083;48.774;8.942;2023-02-22T08:15:04;12.20;99.90
69031;DHT22;56083;48.774;8.942;2023-02-22T08:17:30;12.40;99.90
69031;DHT22;56083;48.774;8.942;2023-02-22T08:19:56;12.60;99.90
69031;DHT22;56083;48.774;8.942;2023-02-22T08:22:21;12.70;99.90
69031;DHT22;56083;48.774;8.942;2023-02-22T08:24:48;13.20;99.90
69031;DHT22;56083;48.774;8.942;2023-02-22T08:27:25;12.80;99.90
69031;DHT22;56083;48.774;8.942;2023-02-22T08:29:51;12.80;99.90
69031;DHT22;56083;48.774;8.942;2023-02-22T08:32:17;12.30;99.90
69031;DHT22;56083;48.774;8.942;2023-02-22T08:34:43;12.60;99.90
69031;DHT22;56083;48.774;8.942;2023-02-22T08:37:09;13.40;99.90
69031;DHT22;56083;48.774;8.942;2023-02-22T08:39:35;14.30;99.90
69031;DHT22;56083;48.774;8.942;2023-02-22T08:42:00;14.90;99.90
69031;DHT22;56083;48.774;8.942;2023-02-22T08:44:26;16.40;99.90
69031;DHT22;56083;48.774;8.942;2023-02-22T08:46:51;17.40;99.90
69031;DHT22;56083;48.774;8.942;2023-02-22T08:49:17;18.00;99.90
69031;DHT22;56083;48.774;8.942;2023-02-22T08:51:43;19.00;99.90
69031;DHT22;56083;48.774;8.942;2023-02-22T08:54:08;19.50;99.90
69031;DHT22;56083;48.774;8.942;2023-02-22T08:56:34;19.50;99.90
69031;DHT22;56083;48.774;8.942;2023-02-22T08:58:59;19.70;97.90
69031;DHT22;56083;48.774;8.942;2023-02-22T09:01:25;19.50;97.30
69031;DHT22;56083;48.774;8.942;2023-02-22T09:03:52;19.20;96.60
69031;DHT22;56083;48.774;8.942;2023-02-22T09:06:18;18.60;97.10
69031;DHT22;56083;48.774;8.942;2023-02-22T09:08:43;18.00;97.30
69031;DHT22;56083;48.774;8.942;2023-02-22T09:11:09;18.80;96.60
69031;DHT22;56083;48.774;8.942;2023-02-22T09:13:35;19.20;96.00
69031;DHT22;56083;48.774;8.942;2023-02-22T09:16:00;20.00;94.60
69031;DHT22;56083;48.774;8.942;2023-02-22T09:18:27;20.30;92.80
69031;DHT22;56083;48.774;8.942;2023-02-22T09:20:53;20.40;92.10
69031;DHT22;56083;48.774;8.942;2023-02-22T09:23:19;20.80;91.40
69031;DHT22;56083;48.774;8.942;2023-02-22T09:25:48;21.30;90.30
69031;DHT22;56083;48.774;8.942;2023-02-22T09:28:14;21.30;89.60
69031;DHT22;56083;48.774;8.942;2023-02-22T09:30:41;20.70;89.60
69031;DHT22;56083;48.774;8.942;2023-02-22T09:33:17;20.80;89.90
69031;DHT22;56083;48.774;8.942;2023-02-22T09:35:44;20.80;89.60
69031;DHT22;56083;48.774;8.942;2023-02-22T09:38:14;21.20;89.10
69031;DHT22;56083;48.774;8.942;2023-02-22T09:40:42;22.10;86.70
69031;DHT22;56083;48.774;8.942;2023-02-22T09:49:23;23.70;79.90
69031;DHT22;56083;48.774;8.942;2023-02-22T09:51:57;24.50;76.30
69031;DHT22;56083;48.774;8.942;2023-02-22T09:55:39;24.20;76.50
69031;DHT22;56083;48.774;8.942;2023-02-22T09:57:42;24.10;76.50
69031;DHT22;56083;48.774;8.942;2023-02-22T10:00:16;24.40;74.90
69031;DHT22;56083;48.774;8.942;2023-02-22T10:05:35;25.20;72.00
69031;DHT22;56083;48.774;8.942;2023-02-22T10:08:05;25.10;71.40
69031;DHT22;56083;48.774;8.942;2023-02-22T10:10:36;25.80;69.70
69031;DHT22;56083;48.774;8.942;2023-02-22T10:13:26;25.50;69.80
69031;DHT22;56083;48.774;8.942;2023-02-22T10:18:59;25.70;69.80
69031;DHT22;56083;48.774;8.942;2023-02-22T10:26:55;26.20;63.70
69031;DHT22;56083;48.774;8.942;2023-02-22T10:29:30;26.50;62.90
69031;DHT22;56083;48.774;8.942;2023-02-22T10:32:02;26.70;61.80
69031;DHT22;56083;48.774;8.942;2023-02-22T10:34:40;26.40;62.30
69031;DHT22;56083;48.774;8.942;2023-02-22T10:37:28;25.90;62.80
69031;DHT22;56083;48.774;8.942;2023-02-22T10:40:17;25.50;62.40
69031;DHT22;56083;48.774;8.942;2023-02-22T10:42:44;25.20;64.20
69031;DHT22;56083;48.774;8.942;2023-02-22T10:45:29;25.40;62.50
69031;DHT22;56083;48.774;8.942;2023-02-22T10:47:59;25.80;62.30
69031;DHT22;56083;48.774;8.942;2023-02-22T10:50:30;27.00;60.70
69031;DHT22;56083;48.774;8.942;2023-02-22T10:52:58;27.30;58.80
69031;DHT22;56083;48.774;8.942;2023-02-22T10:55:24;27.10;58.30
69031;DHT22;56083;48.774;8.942;2023-02-22T10:57:57;27.20;56.90
69031;DHT22;56083;48.774;8.942;2023-02-22T11:00:31;27.00;57.60
69031;DHT22;56083;48.774;8.942;2023-02-22T11:03:20;27.30;56.70
69031;DHT22;56083;48.774;8.942;2023-02-22T11:05:47;26.90;56.00
69031;DHT22;56083;48.774;8.942;2023-02-22T11:08:23;26.90;57.10
69031;DHT22;56083;48.774;8.942;2023-02-22T11:10:51;26.60;57.00
69031;DHT22;56083;48.774;8.942;2023-02-22T11:13:31;25.90;58.70
69031;DHT22;56083;48.774;8.942;2023-02-22T11:16:00;26.30;59.70
69031;DHT22;56083;48.774;8.942;2023-02-22T11:18:34;26.50;59.30
69031;DHT22;56083;48.774;8.942;2023-02-22T11:21:04;26.60;58.30
69031;DHT22;56083;48.774;8.942;2023-02-22T11:23:32;27.10;58.60
69031;DHT22;56083;48.774;8.942;2023-02-22T11:26:13;26.80;57.50
69031;DHT22;56083;48.774;8.942;2023-02-22T11:28:45;27.50;57.50
69031;DHT22;56083;48.774;8.942;2023-02-22T11:31:20;27.90;57.30
69031;DHT22;56083;48.774;8.942;2023-02-22T11:33:58;27.60;56.60
69031;DHT22;56083;48.774;8.942;2023-02-22T11:36:33;27.90;56.00
69031;DHT22;56083;48.774;8.942;2023-02-22T11:39:03;27.20;56.40
69031;DHT22;56083;48.774;8.942;2023-02-22T11:41:33;27.20;56.50
69031;DHT22;56083;48.774;8.942;2023-02-22T11:44:24;27.20;56.60
69031;DHT22;56083;48.774;8.942;2023-02-22T11:46:50;27.70;56.20
69031;DHT22;56083;48.774;8.942;2023-02-22T11:49:22;27.80;55.70
69031;DHT22;56083;48.774;8.942;2023-02-22T12:00:39;26.10;58.20
69031;DHT22;56083;48.774;8.942;2023-02-22T12:03:39;25.60;59.10
69031;DHT22;56083;48.774;8.942;2023-02-22T12:09:10;23.60;63.30
69031;DHT22;56083;48.774;8.942;2023-02-22T12:14:39;22.40;66.60
69031;DHT22;56083;48.774;8.942;2023-02-22T12:17:20;21.50;70.00
69031;DHT22;56083;48.774;8.942;2023-02-22T12:19:55;20.80;71.90
69031;DHT22;56083;48.774;8.942;2023-02-22T12:22:31;20.80;73.40
69031;DHT22;56083;48.774;8.942;2023-02-22T12:25:06;21.50;71.10
69031;DHT22;56083;48.774;8.942;2023-02-22T12:27:52;22.20;69.10
69031;DHT22;56083;48.774;8.942;2023-02-22T12:30:34;22.80;67.30
69031;DHT22;56083;48.774;8.942;2023-02-22T12:33:10;24.00;64.10
69031;DHT22;56083;48.774;8.942;2023-02-22T12:35:40;25.20;63.40
69031;DHT22;56083;48.774;8.942;2023-02-22T12:41:11;26.60;59.30
69031;DHT22;56083;48.774;8.942;2023-02-22T12:43:46;26.50;57.60
69031;DHT22;56083;48.774;8.942;2023-02-22T12:46:20;26.00;58.00
69031;DHT22;56083;48.774;8.942;2023-02-22T12:49:10;25.90;60.80
69031;DHT22;56083;48.774;8.942;2023-02-22T12:51:57;25.30;61.30
69031;DHT22;56083;48.774;8.942;2023-02-22T12:59:48;25.90;58.70
69031;DHT22;56083;48.774;8.942;2023-02-22T13:02:31;26.50;58.20
69031;DHT22;56083;48.774;8.942;2023-02-22T13:05:00;26.60;57.50
69031;DHT22;56083;48.774;8.942;2023-02-22T13:07:40;26.50;58.30
69031;DHT22;56083;48.774;8.942;2023-02-22T13:16:04;24.10;61.60
69031;DHT22;56083;48.774;8.942;2023-02-22T13:18:48;22.60;63.90
69031;DHT22;56083;48.774;8.942;2023-02-22T13:24:01;20.60;70.90
69031;DHT22;56083;48.774;8.942;2023-02-22T13:29:09;20.70;72.80
69031;DHT22;56083;48.774;8.942;2023-02-22T13:38:15;20.80;71.80
69031;DHT22;56083;48.774;8.942;2023-02-22T13:52:16;18.90;79.50
69031;DHT22;56083;48.774;8.942;2023-02-22T13:54:47;18.80;79.10
69031;DHT22;56083;48.774;8.942;2023-02-22T13:59:47;19.30;78.90
69031;DHT22;56083;48.774;8.942;2023-02-22T14:02:55;19.60;77.60
69031;DHT22;56083;48.774;8.942;2023-02-22T14:10:53;19.70;77.20
69031;DHT22;56083;48.774;8.942;2023-02-22T14:13:26;19.60;77.20
69031;DHT22;56083;48.774;8.942;2023-02-22T14:21:15;19.50;78.60
69031;DHT22;56083;48.774;8.942;2023-02-22T14:23:49;19.20;79.90
69031;DHT22;56083;48.774;8.942;2023-02-22T14:26:28;18.80;81.50
69031;DHT22;56083;48.774;8.942;2023-02-22T14:28:58;18.50;82.30
69031;DHT22;56083;48.774;8.942;2023-02-22T14:31:32;18.20;83.20
69031;DHT22;56083;48.774;8.942;2023-02-22T14:34:11;17.70;84.60
69031;DHT22;56083;48.774;8.942;2023-02-22T14:39:18;17.30;87.50
69031;DHT22;56083;48.774;8.942;2023-02-22T14:41:53;17.30;87.60
69031;DHT22;56083;48.774;8.942;2023-02-22T14:44:24;17.20;87.60
69031;DHT22;56083;48.774;8.942;2023-02-22T14:46:53;17.40;87.40
69031;DHT22;56083;48.774;8.942;2023-02-22T14:49:23;17.20;88.40
69031;DHT22;56083;48.774;8.942;2023-02-22T14:51:59;17.30;89.00
69031;DHT22;56083;48.774;8.942;2023-02-22T14:54:52;17.70;87.50
69031;DHT22;56083;48.774;8.942;2023-02-22T14:57:37;18.30;85.80
69031;DHT22;56083;48.774;8.942;2023-02-22T15:00:18;18.30;85.50
69031;DHT22;56083;48.774;8.942;2023-02-22T15:02:49;18.00;85.60
69031;DHT22;56083;48.774;8.942;2023-02-22T15:05:18;17.50;87.50
69031;DHT22;56083;48.774;8.942;2023-02-22T15:07:56;17.30;88.40
69031;DHT22;56083;48.774;8.942;2023-02-22T15:10:29;16.80;89.20
69031;DHT22;56083;48.774;8.942;2023-02-22T15:13:00;16.60;90.20
69031;DHT22;56083;48.774;8.942;2023-02-22T15:15:35;16.60;90.20
69031;DHT22;56083;48.774;8.942;2023-02-22T15:18:01;17.20;89.20
69031;DHT22;56083;48.774;8.942;2023-02-22T15:20:33;17.60;89.00
69031;DHT22;56083;48.774;8.942;2023-02-22T15:22:59;18.00;86.30
69031;DHT22;56083;48.774;8.942;2023-02-22T15:25:28;18.10;85.60
69031;DHT22;56083;48.774;8.942;2023-02-22T15:28:03;18.00;85.40
69031;DHT22;56083;48.774;8.942;2023-02-22T15:30:31;17.80;86.30
69031;DHT22;56083;48.774;8.942;2023-02-22T15:33:10;17.50;86.30
69031;DHT22;56083;48.774;8.942;2023-02-22T15:35:37;17.00;87.30
69031;DHT22;56083;48.774;8.942;2023-02-22T15:40:30;16.00;90.30
69031;DHT22;56083;48.774;8.942;2023-02-22T15:43:02;15.70;91.20
69031;DHT22;56083;48.774;8.942;2023-02-22T15:45:29;15.30;91.70
69031;DHT22;56083;48.774;8.942;2023-02-22T15:47:57;15.00;92.60
69031;DHT22;56083;48.774;8.942;2023-02-22T15:50:30;14.80;93.50
69031;DHT22;56083;48.774;8.942;2023-02-22T15:53:06;14.60;93.80
69031;DHT22;56083;48.774;8.942;2023-02-22T15:55:36;14.50;94.10
69031;DHT22;56083;48.774;8.942;2023-02-22T16:00:46;14.10;95.00
69031;DHT22;56083;48.774;8.942;2023-02-22T16:03:17;14.00;95.20
69031;DHT22;56083;48.774;8.942;2023-02-22T16:05:53;13.90;95.50
69031;DHT22;56083;48.774;8.942;2023-02-22T16:08:23;13.90;95.70
69031;DHT22;56083;48.774;8.942;2023-02-22T16:11:09;13.70;96.10
69031;DHT22;56083;48.774;8.942;2023-02-22T16:13:39;13.70;96.10
69031;DHT22;56083;48.774;8.942;2023-02-22T16:18:46;13.30;96.60
69031;DHT22;56083;48.774;8.942;2023-02-22T16:21:14;13.10;96.90
69031;DHT22;56083;48.774;8.942;2023-02-22T16:23:54;13.00;97.50
69031;DHT22;56083;48.774;8.942;2023-02-22T16:26:25;12.90;98.10
69031;DHT22;56083;48.774;8.942;2023-02-22T16:29:02;12.70;98.70
69031;DHT22;56083;48.774;8.942;2023-02-22T16:31:36;12.50;99.50
69031;DHT22;56083;48.774;8.942;2023-02-22T16:34:04;12.30;99.90
69031;DHT22;56083;48.774;8.942;2023-02-22T16:36:42;12.10;99.90
69031;DHT22;56083;48.774;8.942;2023-02-22T16:39:24;12.00;99.90
69031;DHT22;56083;48.774;8.942;2023-02-22T16:41:52;11.90;99.90
69031;DHT22;56083;48.774;8.942;2023-02-22T16:44:19;11.90;99.90
69031;DHT22;56083;48.774;8.942;2023-02-22T16:46:45;11.80;99.90
69031;DHT22;56083;48.774;8.942;2023-02-22T16:49:11;11.60;99.90
69031;DHT22;56083;48.774;8.942;2023-02-22T16:51:47;11.50;99.90
69031;DHT22;56083;48.774;8.942;2023-02-22T16:54:20;11.40;99.90
69031;DHT22;56083;48.774;8.942;2023-02-22T16:56:48;11.30;99.90
69031;DHT22;56083;48.774;8.942;2023-02-22T16:59:14;11.20;99.90
69031;DHT22;56083;48.774;8.942;2023-02-22T17:01:41;11.10;99.90
69031;DHT22;56083;48.774;8.942;2023-02-22T17:04:16;11.10;99.90
69031;DHT22;56083;48.774;8.942;2023-02-22T17:06:42;10.90;99.90
69031;DHT22;56083;48.774;8.942;2023-02-22T17:09:08;10.80;99.90
69031;DHT22;56083;48.774;8.942;2023-02-22T17:11:35;10.70;99.90
69031;DHT22;56083;48.774;8.942;2023-02-22T17:14:01;10.60;99.90
69031;DHT22;56083;48.774;8.942;2023-02-22T17:16:30;10.60;99.90
69031;DHT22;56083;48.774;8.942;2023-02-22T17:18:55;10.50;99.90
69031;DHT22;56083;48.774;8.942;2023-02-22T17:21:21;10.40;99.90
69031;DHT22;56083;48.774;8.942;2023-02-22T17:23:47;10.30;99.90
69031;DHT22;56083;48.774;8.942;2023-02-22T17:26:14;10.30;99.90
69031;DHT22;56083;48.774;8.942;2023-02-22T17:28:40;10.20;99.90
69031;DHT22;56083;48.774;8.942;2023-02-22T17:31:17;10.20;99.90
69031;DHT22;56083;48.774;8.942;2023-02-22T17:33:43;10.10;99.90
69031;DHT22;56083;48.774;8.942;2023-02-22T17:36:09;10.10;99.90
69031;DHT22;56083;48.774;8.942;2023-02-22T17:38:35;10.00;99.90
69031;DHT22;56083;48.774;8.942;2023-02-22T17:41:00;10.00;99.90
69031;DHT22;56083;48.774;8.942;2023-02-22T17:43:27;10.00;99.90
69031;DHT22;56083;48.774;8.942;2023-02-22T17:45:54;9.90;99.90
69031;DHT22;56083;48.774;8.942;2023-02-22T17:48:21;9.90;99.90
69031;DHT22;56083;48.774;8.942;2023-02-22T17:50:47;9.90;99.90
69031;DHT22;56083;48.774;8.942;2023-02-22T17:53:14;9.90;99.90
69031;DHT22;56083;48.774;8.942;2023-02-22T17:55:42;9.90;99.90
69031;DHT22;56083;48.774;8.942;2023-02-22T17:58:10;9.90;99.90
69031;DHT22;56083;48.774;8.942;2023-02-22T18:00:40;9.90;99.90
69031;DHT22;56083;48.774;8.942;2023-02-22T18:03:13;9.90;99.90